Wind From: 11-12-2017 04:25 Until: 16:00 warning for: Wind Level: Orange info button

Power and phone distribution networks may be disrupted for relatively long periods., Roofs and chimneys can be damaged. , Tree branches may break. , Vehicles can be deported. , Traffic may be disrupted, particularly on secondary roads in forest areas. Limit your trips. , Limit your speed in highway driving, especially if you drive a vehicle or hitch sensitive to wind. , Do not go for walks in forests or along the coast., In town, be vigilant against possible falling objects., Do not work on roofs and do not touch any electrical line fallen on the ground., Store or secure sensitive objects to wind or likely to be damaged., Always install power generators outside buildings. 


Meteo18 Weather Cam more information Meteo18 Weather Cam


Thunder radar more information blitzortung!


Rain radar more information rain snow radar


Visit our other weather sites:

Template documentation
and downloads

And another site



Weather Underground History page Text

Daily Summary for March 20, 2017 Units:  English    Metric   Both
« Previous Day
Next Day »
Daily Weekly Monthly Yearly Custom
  High: Low: Average:
Temperature: 52.5 °F 47.3 °F 49.6 °F
Dew Point: 47.7 °F 43 °F 44.8 °F
Humidity: 94 % 72 % 84 %
Wind Speed: 18 mph 0 mph 4.9 mph
Wind Gust: 20 mph - -
Wind:- - WSW
Pressure: 30.1 in 30 in -
Precipitation: 0 in    
Historical Graphs
 
 
Tabular Data for March 20, 2017
Time Temperature Dew Point Pressure Wind Wind Speed Wind Gust Humidity Rainfall Rate (Hourly)
00:02 51.1 °F 46.4 °F 30.1 in WSW 3 mph 7 mph 84 % 0 in
00:12 51.1 °F 46 °F 30.1 in West 1 mph 6 mph 83 % 0 in
00:17 51.1 °F 46 °F 30.1 in SW 2 mph 6 mph 83 % 0 in
00:22 50.7 °F 46.9 °F 30.1 in SSW 4 mph 6 mph 87 % 0 in
00:27 50.4 °F 47.5 °F 30.1 in SW 6 mph 6 mph 90 % 0 in
00:32 50.2 °F 47.7 °F 30.1 in SSW 4 mph 7 mph 91 % 0 in
00:37 50 °F 47.5 °F 30.1 in SW 5 mph 7 mph 91 % 0 in
00:42 49.8 °F 47.3 °F 30.1 in WSW 1 mph 8 mph 91 % 0 in
00:47 50 °F 47.1 °F 30.1 in SW 3 mph 7 mph 90 % 0 in
00:52 50 °F 47.5 °F 30.1 in SSW 4 mph 7 mph 91 % 0 in
00:57 49.6 °F 47.5 °F 30.1 in SW 5 mph 7 mph 92 % 0 in
01:02 49.5 °F 47.5 °F 30.1 in South 4 mph 7 mph 93 % 0 in
01:12 49.3 °F 47.3 °F 30.1 in WSW 4 mph 7 mph 93 % 0 in
01:17 49.3 °F 47.7 °F 30.1 in SW 4 mph 7 mph 94 % 0 in
01:22 49.3 °F 47.7 °F 30.1 in SSW 5 mph 7 mph 94 % 0 in
01:27 49.3 °F 47.7 °F 30.1 in West 2 mph 8 mph 94 % 0 in
01:32 49.3 °F 47.7 °F 30.1 in SW 6 mph 8 mph 94 % 0 in
01:37 49.5 °F 47.5 °F 30.1 in WSW 4 mph 8 mph 93 % 0 in
01:42 49.3 °F 47.3 °F 30.1 in West 2 mph 8 mph 93 % 0 in
01:47 49.3 °F 47.3 °F 30.1 in WSW 4 mph 8 mph 93 % 0 in
01:52 49.3 °F 47.3 °F 30.1 in WSW 4 mph 8 mph 93 % 0 in
02:02 49.3 °F 47.3 °F 30.1 in SW 3 mph 7 mph 93 % 0 in
02:07 49.5 °F 47.3 °F 30.1 in WNW 3 mph 8 mph 92 % 0 in
02:12 49.5 °F 47.3 °F 30.1 in SW 3 mph 9 mph 92 % 0 in
02:22 49.5 °F 47.3 °F 30.1 in SW 1 mph 9 mph 92 % 0 in
02:32 49.3 °F 47.1 °F 30 in WSW 4 mph 10 mph 92 % 0 in
02:37 49.3 °F 47.1 °F 30 in WSW 3 mph 7 mph 92 % 0 in
02:42 49.3 °F 46.8 °F 30 in WSW 2 mph 7 mph 91 % 0 in
02:47 49.3 °F 46.8 °F 30 in SW 3 mph 8 mph 91 % 0 in
02:52 49.3 °F 46.8 °F 30 in SW 3 mph 8 mph 91 % 0 in
02:57 49.3 °F 46.8 °F 30 in SW 3 mph 9 mph 91 % 0 in
03:02 49.3 °F 46.8 °F 30 in SW 3 mph 9 mph 91 % 0 in
03:07 49.3 °F 46.8 °F 30 in WSW 2 mph 6 mph 91 % 0 in
03:12 49.3 °F 46.4 °F 30 in West 3 mph 6 mph 90 % 0 in
03:17 49.3 °F 46.4 °F 30 in SW 2 mph 7 mph 90 % 0 in
03:22 49.1 °F 46.2 °F 30 in SW 2 mph 7 mph 90 % 0 in
03:27 48.9 °F 46.4 °F 30 in SSW 3 mph 7 mph 91 % 0 in
03:32 48.9 °F 46.8 °F 30 in SW 2 mph 7 mph 92 % 0 in
03:37 48.7 °F 46.6 °F 30 in SW 3 mph 6 mph 92 % 0 in
03:42 48.7 °F 46.2 °F 30 in SSW 2 mph 6 mph 91 % 0 in
03:47 48.7 °F 46.2 °F 30 in SW 2 mph 5 mph 91 % 0 in
03:52 48.7 °F 46.2 °F 30 in SW 2 mph 5 mph 91 % 0 in
03:57 48.7 °F 46.2 °F 30 in WSW 2 mph 4 mph 91 % 0 in
04:02 48.7 °F 46.2 °F 30 in SW 2 mph 4 mph 91 % 0 in
04:07 48.6 °F 46 °F 30 in West 2 mph 4 mph 91 % 0 in
04:12 48.6 °F 45.7 °F 30 in SW 3 mph 4 mph 90 % 0 in
04:17 48.6 °F 45.7 °F 30 in SW 2 mph 4 mph 90 % 0 in
04:22 48.6 °F 45.7 °F 30 in West 2 mph 4 mph 90 % 0 in
04:27 48.6 °F 45.7 °F 30 in SW 3 mph 4 mph 90 % 0 in
04:32 48.6 °F 45.7 °F 30 in WSW 2 mph 4 mph 90 % 0 in
04:37 48.4 °F 45.5 °F 30 in WSW 2 mph 5 mph 90 % 0 in
04:42 48.4 °F 45.3 °F 30 in WSW 4 mph 5 mph 89 % 0 in
04:47 48.4 °F 45.3 °F 30 in West 3 mph 6 mph 89 % 0 in
04:52 48.4 °F 45.3 °F 30 in SW 2 mph 6 mph 89 % 0 in
05:02 48.4 °F 45.3 °F 30 in WSW 3 mph 6 mph 89 % 0 in
05:07 48.4 °F 45.3 °F 30 in WSW 1 mph 5 mph 89 % 0 in
05:12 48.4 °F 45.3 °F 30 in WSW 2 mph 5 mph 89 % 0 in
05:17 48.4 °F 45.3 °F 30 in SW 3 mph 4 mph 89 % 0 in
05:22 48.4 °F 45.3 °F 30 in WSW 3 mph 4 mph 89 % 0 in
05:32 48.2 °F 45.1 °F 30 in SW 3 mph 5 mph 89 % 0 in
05:42 48 °F 44.6 °F 30 in West 2 mph 5 mph 88 % 0 in
05:52 48.2 °F 44.6 °F 30 in WSW 3 mph 6 mph 87 % 0 in
05:57 48.2 °F 44.6 °F 30 in WSW 1 mph 7 mph 87 % 0 in
06:02 48.4 °F 44.4 °F 30 in West 5 mph 7 mph 86 % 0 in
06:12 48.4 °F 43.7 °F 30 in SSW 4 mph 7 mph 84 % 0 in
06:17 48.4 °F 43.7 °F 30 in SSW 3 mph 8 mph 84 % 0 in
06:22 48.4 °F 43.7 °F 30 in WSW 3 mph 8 mph 84 % 0 in
06:32 48.4 °F 44.1 °F 30 in SW 3 mph 6 mph 85 % 0 in
06:42 48 °F 43.7 °F 30 in SW 3 mph 7 mph 85 % 0 in
06:47 48 °F 43.7 °F 30 in West 3 mph 7 mph 85 % 0 in
06:52 48 °F 43.7 °F 30 in WSW 4 mph 7 mph 85 % 0 in
07:02 48 °F 43.3 °F 30 in West 4 mph 9 mph 84 % 0 in
07:07 48 °F 43.2 °F 30 in West 3 mph 10 mph 83 % 0 in
07:12 48 °F 43.2 °F 30 in WSW 3 mph 10 mph 83 % 0 in
07:17 48 °F 43.2 °F 30 in WSW 2 mph 8 mph 83 % 0 in
07:22 48 °F 43.2 °F 30 in SSW 2 mph 8 mph 83 % 0 in
07:32 47.8 °F 43 °F 30 in WSW 3 mph 8 mph 83 % 0 in
07:42 47.8 °F 43.2 °F 30 in SW 3 mph 6 mph 84 % 0 in
07:47 47.8 °F 43.2 °F 30 in SW 1 mph 5 mph 84 % 0 in
07:52 47.8 °F 43.2 °F 30 in West 4 mph 5 mph 84 % 0 in
08:02 47.7 °F 43.3 °F 30 in West 2 mph 8 mph 85 % 0 in
08:12 47.7 °F 43.3 °F 30 in West 7 mph 8 mph 85 % 0 in
08:17 47.7 °F 43.3 °F 30 in SW 5 mph 7 mph 85 % 0 in
08:22 47.7 °F 43.3 °F 30 in SSW 3 mph 7 mph 85 % 0 in
08:32 47.7 °F 43.3 °F 30 in WSW 4 mph 8 mph 85 % 0 in
08:37 47.7 °F 43.7 °F 30 in SW 4 mph 8 mph 86 % 0 in
08:42 47.5 °F 43.9 °F 30 in West 2 mph 8 mph 87 % 0 in
08:47 47.5 °F 43.9 °F 30 in WSW 5 mph 9 mph 87 % 0 in
08:52 47.7 °F 44.2 °F 30 in West 5 mph 9 mph 88 % 0 in
08:57 47.7 °F 44.2 °F 30 in SW 5 mph 10 mph 88 % 0 in
09:02 47.7 °F 44.6 °F 30 in WSW 3 mph 10 mph 89 % 0 in
09:12 47.7 °F 44.2 °F 30 in SW 3 mph 10 mph 88 % 0 in
09:17 48 °F 44.6 °F 30 in SW 8 mph 10 mph 88 % 0 in
09:22 48.4 °F 44.8 °F 30 in SW 6 mph 10 mph 87 % 0 in
09:32 48.7 °F 44.8 °F 30 in WSW 6 mph 10 mph 86 % 0 in
09:42 49.3 °F 45 °F 30 in WSW 6 mph 11 mph 85 % 0 in
09:52 48.7 °F 44.1 °F 30 in WSW 5 mph 12 mph 84 % 0 in
10:02 48.4 °F 44.8 °F 30 in WSW 5 mph 10 mph 87 % 0 in
10:12 47.8 °F 44.4 °F 30 in West 5 mph 12 mph 88 % 0 in
10:17 47.8 °F 44.4 °F 30 in WSW 5 mph 12 mph 88 % 0 in
10:22 47.7 °F 44.2 °F 30 in WSW 9 mph 12 mph 88 % 0 in
10:32 47.3 °F 44.8 °F 30 in SW 4 mph 11 mph 91 % 0 in
10:42 47.5 °F 45 °F 30 in WSW 7 mph 11 mph 91 % 0 in
10:47 47.5 °F 45.3 °F 30 in WSW 4 mph 9 mph 92 % 0 in
10:52 47.5 °F 45.3 °F 30 in WSW 3 mph 9 mph 92 % 0 in
11:02 47.7 °F 45.5 °F 30 in SW 4 mph 8 mph 92 % 0 in
11:12 47.8 °F 45.3 °F 30 in SW 5 mph 9 mph 91 % 0 in
11:17 48 °F 45.5 °F 30 in WSW 8 mph 8 mph 91 % 0 in
11:22 48 °F 45.5 °F 30 in South 3 mph 7 mph 91 % 0 in
11:32 48 °F 45.5 °F 30 in SW 3 mph 10 mph 91 % 0 in
11:37 47.8 °F 45 °F 30 in SW 5 mph 8 mph 90 % 0 in
11:42 47.8 °F 45 °F 30 in WSW 5 mph 8 mph 90 % 0 in
11:47 47.8 °F 45 °F 30 in WSW 5 mph 9 mph 90 % 0 in
11:52 47.8 °F 45.3 °F 30 in WSW 4 mph 9 mph 91 % 0 in
11:57 48 °F 45.5 °F 30 in WSW 6 mph 10 mph 91 % 0 in
12:02 47.8 °F 45.3 °F 30 in WSW 4 mph 10 mph 91 % 0 in
12:07 47.7 °F 45.1 °F 30 in WSW 2 mph 10 mph 91 % 0 in
12:12 47.8 °F 45.7 °F 30 in West 3 mph 10 mph 92 % 0 in
12:17 47.8 °F 45.3 °F 30 in Calm   9 mph 91 % 0 in
12:22 48 °F 45.5 °F 30 in SW 3 mph 9 mph 91 % 0 in
12:32 48.4 °F 45.5 °F 30 in West 2 mph 9 mph 90 % 0 in
12:42 48.6 °F 45.1 °F 30 in West 3 mph 9 mph 88 % 0 in
12:47 48.7 °F 45.3 °F 30 in WSW 4 mph 9 mph 88 % 0 in
12:52 48.9 °F 45.1 °F 30 in SW 4 mph 9 mph 87 % 0 in
12:57 48.9 °F 45.1 °F 30 in SW 7 mph 7 mph 87 % 0 in
13:02 49.1 °F 45.1 °F 30 in SW 2 mph 7 mph 86 % 0 in
13:12 49.8 °F 45.1 °F 30 in WSW 4 mph 9 mph 84 % 0 in
13:17 50.2 °F 45.1 °F 30 in South 6 mph 10 mph 83 % 0 in
13:22 50.4 °F 44.8 °F 30 in WSW 11 mph 11 mph 81 % 0 in
13:32 50.9 °F 44.2 °F 30 in SW 6 mph 15 mph 78 % 0 in
13:37 51.1 °F 44.1 °F 30 in WSW 11 mph 17 mph 77 % 0 in
13:42 51.1 °F 43.7 °F 30 in SW 12 mph 17 mph 76 % 0 in
13:47 51.1 °F 43.7 °F 30 in WSW 11 mph 17 mph 76 % 0 in
13:52 51.1 °F 44.1 °F 30 in SSW 9 mph 17 mph 77 % 0 in
13:57 51.1 °F 43.7 °F 30 in SW 6 mph 17 mph 76 % 0 in
14:02 51.1 °F 43.7 °F 30 in SW 10 mph 17 mph 76 % 0 in
14:07 51.1 °F 43.5 °F 30 in SW 7 mph 17 mph 75 % 0 in
14:12 51.1 °F 43.5 °F 30 in SSW 8 mph 17 mph 75 % 0 in
14:17 51.1 °F 43.5 °F 30 in SW 5 mph 17 mph 75 % 0 in
14:22 51.1 °F 43.7 °F 30 in SW 7 mph 17 mph 76 % 0 in
14:27 51.1 °F 44.1 °F 30 in SW 7 mph 16 mph 77 % 0 in
14:32 51.1 °F 44.1 °F 30 in WSW 2 mph 16 mph 77 % 0 in
14:42 51.3 °F 43.5 °F 30 in SW 4 mph 15 mph 75 % 0 in
14:47 51.3 °F 43.5 °F 30 in SW 9 mph 18 mph 75 % 0 in
14:52 51.3 °F 43.3 °F 30 in West 11 mph 18 mph 74 % 0 in
14:57 51.4 °F 43.7 °F 30 in SW 8 mph 18 mph 75 % 0 in
15:02 51.6 °F 43.9 °F 30 in WSW 8 mph 18 mph 75 % 0 in
15:12 51.8 °F 43.7 °F 30 in WSW 8 mph 16 mph 74 % 0 in
15:17 52 °F 44.2 °F 30 in West 8 mph 17 mph 75 % 0 in
15:22 52 °F 44.6 °F 30 in SW 4 mph 17 mph 76 % 0 in
15:27 52 °F 44.2 °F 30 in SW 6 mph 14 mph 75 % 0 in
15:32 52 °F 44.2 °F 30 in SW 8 mph 14 mph 75 % 0 in
15:37 52 °F 44.2 °F 30 in SW 4 mph 14 mph 75 % 0 in
15:42 52 °F 44.2 °F 30 in WSW 5 mph 14 mph 75 % 0 in
15:52 52.2 °F 44.8 °F 30 in SW 5 mph 13 mph 76 % 0 in
15:57 52.2 °F 44.8 °F 30 in West 3 mph 11 mph 76 % 0 in
16:02 52.3 °F 45 °F 30 in SSW 4 mph 11 mph 76 % 0 in
16:07 52.2 °F 44.4 °F 30 in West 4 mph 11 mph 75 % 0 in
16:12 52.2 °F 44.8 °F 30 in West 2 mph 11 mph 76 % 0 in
16:17 52.2 °F 44.8 °F 30 in WSW 8 mph 15 mph 76 % 0 in
16:22 52.2 °F 44.4 °F 30 in WSW 4 mph 15 mph 75 % 0 in
16:27 52.3 °F 44.6 °F 30 in SW 8 mph 15 mph 75 % 0 in
16:32 52.5 °F 44.8 °F 30 in WSW 8 mph 15 mph 75 % 0 in
16:37 52.5 °F 44.8 °F 30 in West 13 mph 14 mph 75 % 0 in
16:42 52.5 °F 44.4 °F 30 in West 10 mph 14 mph 74 % 0 in
16:52 52.3 °F 43.9 °F 30 in West 10 mph 18 mph 73 % 0 in
16:57 52.3 °F 43.5 °F 30 in West 11 mph 18 mph 72 % 0 in
17:02 52.3 °F 43.9 °F 30 in West 7 mph 18 mph 73 % 0 in
17:07 52.2 °F 43.7 °F 30 in WSW 13 mph 20 mph 73 % 0 in
17:12 52.2 °F 43.7 °F 30 in WSW 11 mph 20 mph 73 % 0 in
17:17 52.2 °F 44.1 °F 30 in WSW 9 mph 17 mph 74 % 0 in
17:22 52 °F 43.9 °F 30 in West 6 mph 17 mph 74 % 0 in
17:42 51.6 °F 43.9 °F 30 in West 12 mph 17 mph 75 % 0 in
17:52 51.4 °F 43.7 °F 30 in SSW 5 mph 14 mph 75 % 0 in
17:57 51.4 °F 43.7 °F 30 in WSW 5 mph 16 mph 75 % 0 in
18:02 51.4 °F 44.1 °F 30 in SW 8 mph 16 mph 76 % 0 in
18:07 51.4 °F 44.1 °F 30 in West 9 mph 16 mph 76 % 0 in
18:12 51.3 °F 43.9 °F 30 in WSW 18 mph 18 mph 76 % 0 in
18:17 51.3 °F 43.9 °F 30 in WSW 12 mph 16 mph 76 % 0 in
18:22 51.3 °F 43.9 °F 30 in SSW 7 mph 18 mph 76 % 0 in
18:27 51.3 °F 44.2 °F 30 in WSW 3 mph 18 mph 77 % 0 in
18:32 51.3 °F 44.2 °F 30 in WSW 8 mph 15 mph 77 % 0 in
18:37 51.3 °F 44.2 °F 30 in WSW 5 mph 15 mph 77 % 0 in
18:42 51.1 °F 44.1 °F 30 in WSW 9 mph 12 mph 77 % 0 in
18:47 51.1 °F 44.4 °F 30 in SW 5 mph 14 mph 78 % 0 in
18:52 51.1 °F 44.4 °F 30 in WSW 7 mph 14 mph 78 % 0 in
18:57 51.1 °F 44.4 °F 30 in SW 6 mph 14 mph 78 % 0 in
19:02 51.1 °F 44.4 °F 30 in West 5 mph 14 mph 78 % 0 in
19:07 50.9 °F 44.6 °F 30 in WSW 6 mph 10 mph 79 % 0 in
19:12 50.7 °F 44.4 °F 30 in West 4 mph 10 mph 79 % 0 in
19:17 50.7 °F 44.4 °F 30 in WSW 4 mph 12 mph 79 % 0 in
19:22 50.7 °F 44.4 °F 30 in WSW 6 mph 12 mph 79 % 0 in
19:27 50.7 °F 44.4 °F 30 in SSW 5 mph 11 mph 79 % 0 in
19:32 50.7 °F 44.4 °F 30 in SW 5 mph 11 mph 79 % 0 in
19:37 50.7 °F 44.8 °F 30 in WSW 4 mph 10 mph 80 % 0 in
19:42 50.7 °F 44.8 °F 30 in SW 3 mph 10 mph 80 % 0 in
19:47 50.7 °F 44.8 °F 30 in SW 9 mph 11 mph 80 % 0 in
19:52 50.7 °F 44.8 °F 30 in SSW 5 mph 11 mph 80 % 0 in
19:57 50.5 °F 44.6 °F 30 in SSW 5 mph 11 mph 80 % 0 in
20:02 50.5 °F 44.6 °F 30 in SW 2 mph 11 mph 80 % 0 in
20:07 50.5 °F 44.6 °F 30 in WSW 5 mph 11 mph 80 % 0 in
20:12 50.5 °F 44.6 °F 30 in WSW 4 mph 11 mph 80 % 0 in
20:17 50.5 °F 44.6 °F 30 in WNW 3 mph 11 mph 80 % 0 in
20:22 50.5 °F 44.6 °F 30 in WSW 6 mph 11 mph 80 % 0 in
20:27 50.5 °F 44.6 °F 30 in WSW 3 mph 9 mph 80 % 0 in
20:32 50.5 °F 44.6 °F 30 in WSW 6 mph 9 mph 80 % 0 in
20:37 50.5 °F 45 °F 30 in WSW 7 mph 10 mph 81 % 0 in
20:42 50.5 °F 45 °F 30 in WSW 5 mph 10 mph 81 % 0 in
20:47 50.5 °F 44.6 °F 30 in West 10 mph 11 mph 80 % 0 in
20:52 50.5 °F 44.6 °F 30 in SW 2 mph 11 mph 80 % 0 in
20:57 50.5 °F 45 °F 30 in WSW 3 mph 12 mph 81 % 0 in
21:02 50.4 °F 44.8 °F 30 in SW 5 mph 12 mph 81 % 0 in
21:12 50.4 °F 44.8 °F 30 in SW 6 mph 13 mph 81 % 0 in
21:17 50.4 °F 44.8 °F 30 in SW 8 mph 13 mph 81 % 0 in
21:22 50.4 °F 44.8 °F 30 in WSW 4 mph 13 mph 81 % 0 in
21:27 50.4 °F 44.8 °F 30 in SW 4 mph 14 mph 81 % 0 in
21:32 50.2 °F 44.6 °F 30 in SW 9 mph 14 mph 81 % 0 in
21:37 50.2 °F 44.6 °F 30 in SW 9 mph 13 mph 81 % 0 in
21:42 50.2 °F 44.6 °F 30 in West 5 mph 13 mph 81 % 0 in
21:52 50.2 °F 44.6 °F 30 in WSW 6 mph 13 mph 81 % 0 in
21:57 50 °F 44.4 °F 30 in WSW 3 mph 12 mph 81 % 0 in
22:02 50 °F 44.8 °F 30 in SW 3 mph 12 mph 82 % 0 in
22:07 50 °F 44.8 °F 30 in WSW 6 mph 11 mph 82 % 0 in
22:12 49.8 °F 44.6 °F 30 in WSW 5 mph 11 mph 82 % 0 in
22:17 49.8 °F 44.6 °F 30 in WSW 6 mph 9 mph 82 % 0 in
22:22 49.8 °F 44.2 °F 30 in West 8 mph 9 mph 81 % 0 in
22:27 49.8 °F 44.2 °F 30 in SSW 4 mph 10 mph 81 % 0 in
22:32 49.8 °F 44.2 °F 30 in WSW 10 mph 10 mph 81 % 0 in
22:42 49.8 °F 43.9 °F 30 in WSW 6 mph 12 mph 80 % 0 in
22:47 49.6 °F 43.7 °F 30 in SW 2 mph 12 mph 80 % 0 in
22:52 49.6 °F 44.1 °F 30 in West 7 mph 12 mph 81 % 0 in
22:57 49.6 °F 44.1 °F 30 in West 6 mph 13 mph 81 % 0 in
23:02 49.6 °F 44.1 °F 30 in WSW 9 mph 13 mph 81 % 0 in
23:07 49.6 °F 44.1 °F 30 in West 6 mph 13 mph 81 % 0 in
23:12 49.6 °F 44.1 °F 30 in SSW 4 mph 13 mph 81 % 0 in
23:17 49.6 °F 44.1 °F 30 in WSW 5 mph 12 mph 81 % 0 in
23:22 49.6 °F 43.7 °F 30 in WSW 3 mph 12 mph 80 % 0 in
23:27 49.6 °F 43.7 °F 30 in SW 5 mph 12 mph 80 % 0 in
23:32 49.6 °F 43.7 °F 30 in SW 2 mph 12 mph 80 % 0 in
23:37 49.5 °F 43.5 °F 30 in WNW 5 mph 11 mph 80 % 0 in
23:42 49.6 °F 43.7 °F 30 in SW 2 mph 11 mph 80 % 0 in
23:47 49.5 °F 43.5 °F 30 in SW 5 mph 12 mph 80 % 0 in
23:52 49.5 °F 43.5 °F 30 in SW 6 mph 12 mph 80 % 0 in
23:57 49.5 °F 43.5 °F 30 in SW 8 mph 11 mph 80 % 0 in
Meteo18
Compliments of Weather Underground - 4 mb

Script developed by  Jim McMurry - jmcmurry@mwt.net Adapted for the template by  Wim van der Kuil - Leuven-Template.eu

You find our weather info also at:

European Weather Network

Weather Underground

Equipment we use:

Weather-station
Davis Vue

Weather-program
Meteohub

Weather-server
Raspberry PI 2 B+

Provider
1 and 1

Davis Vue

Meteohub

Raspberry PI 2 B+

1 and 1